createdAt,value
2022-10-13T00:02:24.410Z,83.40
2022-10-13T00:04:52.196Z,83.40
2022-10-13T00:07:20.003Z,83.30
2022-10-13T00:09:49.331Z,83.40
2022-10-13T00:12:17.412Z,83.10
2022-10-13T00:14:45.515Z,82.90
2022-10-13T00:17:13.452Z,83.10
2022-10-13T00:19:41.442Z,83.00
2022-10-13T00:22:11.018Z,82.90
2022-10-13T00:24:38.916Z,83.00
2022-10-13T00:27:08.188Z,83.20
2022-10-13T00:29:36.139Z,83.60
2022-10-13T00:32:04.029Z,84.10
2022-10-13T00:34:31.859Z,84.10
2022-10-13T00:36:59.710Z,84.00
2022-10-13T00:39:28.128Z,83.80
2022-10-13T00:41:55.969Z,83.80
2022-10-13T00:44:42.493Z,83.90
2022-10-13T00:47:11.747Z,84.00
2022-10-13T00:49:40.080Z,84.10
2022-10-13T00:52:07.970Z,83.90
2022-10-13T00:54:35.858Z,83.80
2022-10-13T00:57:04.110Z,83.80
2022-10-13T00:59:31.947Z,83.70
2022-10-13T01:02:00.364Z,83.50
2022-10-13T01:04:32.145Z,83.20
2022-10-13T01:07:00.042Z,82.90
2022-10-13T01:09:34.782Z,82.80
2022-10-13T01:12:06.669Z,82.90
2022-10-13T01:14:37.315Z,83.00
2022-10-13T01:17:12.674Z,83.10
2022-10-13T01:19:58.279Z,83.00
2022-10-13T01:22:35.460Z,82.70
2022-10-13T01:25:08.188Z,82.80
2022-10-13T01:28:02.820Z,83.00
2022-10-13T01:30:32.944Z,83.10
2022-10-13T01:33:10.786Z,83.00
2022-10-13T01:35:44.319Z,83.20
2022-10-13T01:38:16.085Z,83.10
2022-10-13T01:40:45.326Z,83.10
2022-10-13T01:43:17.177Z,83.10
2022-10-13T01:45:51.101Z,83.40
2022-10-13T01:48:20.365Z,83.70
2022-10-13T01:50:53.229Z,83.60
2022-10-13T01:53:21.482Z,83.40
2022-10-13T01:55:55.007Z,83.50
2022-10-13T01:58:23.168Z,83.50
2022-10-13T02:00:59.040Z,83.50
2022-10-13T02:03:33.628Z,83.50
2022-10-13T02:06:06.691Z,83.50
2022-10-13T02:08:40.519Z,83.60
2022-10-13T02:11:12.944Z,83.70
2022-10-13T02:13:42.842Z,83.80
2022-10-13T02:16:12.422Z,84.10
2022-10-13T02:18:40.509Z,84.20
2022-10-13T02:21:11.209Z,84.20
2022-10-13T02:23:39.051Z,84.30
2022-10-13T02:26:08.884Z,84.20
2022-10-13T02:28:37.736Z,84.10
2022-10-13T02:31:06.921Z,83.90
2022-10-13T02:33:36.173Z,83.80
2022-10-13T02:36:04.089Z,83.70
2022-10-13T02:38:32.008Z,83.70
2022-10-13T02:41:01.299Z,83.60
2022-10-13T02:43:37.165Z,83.60
2022-10-13T02:46:05.146Z,83.50
2022-10-13T02:48:33.168Z,83.40
2022-10-13T02:51:02.421Z,83.40
2022-10-13T02:53:30.285Z,83.40
2022-10-13T02:55:58.155Z,83.40
2022-10-13T02:58:26.636Z,83.40
2022-10-13T03:00:54.515Z,83.30
2022-10-13T03:03:22.333Z,83.30
2022-10-13T03:05:50.101Z,83.30
2022-10-13T03:08:19.579Z,83.30
2022-10-13T03:10:48.019Z,83.30
2022-10-13T03:13:15.946Z,83.30
2022-10-13T03:15:43.801Z,83.40
2022-10-13T03:18:11.653Z,83.40
2022-10-13T03:20:39.556Z,83.20
2022-10-13T03:23:07.946Z,83.30
2022-10-13T03:25:37.335Z,83.30
2022-10-13T03:28:05.220Z,83.10
2022-10-13T03:30:33.169Z,82.90
2022-10-13T03:33:01.000Z,83.00
2022-10-13T03:35:28.891Z,83.00
2022-10-13T03:37:56.847Z,82.80
2022-10-13T03:40:25.850Z,83.00
2022-10-13T03:42:55.011Z,83.10
2022-10-13T03:45:22.880Z,83.20
2022-10-13T03:47:50.639Z,83.30
2022-10-13T03:50:18.518Z,83.30
2022-10-13T03:52:46.873Z,83.50
2022-10-13T03:55:14.760Z,83.70
2022-10-13T03:57:42.617Z,83.60
2022-10-13T04:00:13.131Z,83.60
2022-10-13T04:02:41.189Z,83.40
2022-10-13T04:05:09.375Z,83.40
2022-10-13T04:07:37.219Z,83.50
2022-10-13T04:10:13.329Z,83.60
2022-10-13T04:12:41.403Z,83.30
2022-10-13T04:15:09.940Z,83.10
2022-10-13T04:17:39.407Z,83.10
2022-10-13T04:20:08.208Z,83.10
2022-10-13T04:22:36.080Z,83.20
2022-10-13T04:25:17.340Z,83.40
2022-10-13T04:27:45.373Z,83.40
2022-10-13T04:30:13.668Z,83.40
2022-10-13T04:32:43.022Z,83.40
2022-10-13T04:35:12.694Z,83.40
2022-10-13T04:37:44.804Z,83.20
2022-10-13T04:40:13.506Z,83.20
2022-10-13T04:42:42.000Z,83.20
2022-10-13T04:45:10.267Z,83.10
2022-10-13T04:47:43.770Z,83.10
2022-10-13T04:50:11.653Z,83.00
2022-10-13T04:52:39.638Z,83.00
2022-10-13T04:55:13.179Z,83.00
2022-10-13T04:57:41.044Z,83.00
2022-10-13T05:00:09.373Z,83.00
2022-10-13T05:02:37.247Z,83.00
2022-10-13T05:05:07.826Z,83.10
2022-10-13T05:07:35.754Z,83.10
2022-10-13T05:10:03.665Z,83.10
2022-10-13T05:12:31.588Z,83.10
2022-10-13T05:14:59.763Z,83.20
2022-10-13T05:17:30.639Z,83.30
2022-10-13T05:20:04.903Z,83.20
2022-10-13T05:22:34.156Z,83.20
2022-10-13T05:25:01.921Z,83.10
2022-10-13T05:27:29.729Z,83.20
2022-10-13T05:29:57.586Z,83.40
2022-10-13T05:32:25.783Z,83.40
2022-10-13T05:34:55.253Z,83.40
2022-10-13T05:37:23.371Z,83.40
2022-10-13T05:39:52.625Z,83.40
2022-10-13T05:42:20.715Z,83.40
2022-10-13T05:44:48.865Z,83.50
2022-10-13T05:47:16.864Z,83.50
2022-10-13T05:49:46.135Z,83.50
2022-10-13T05:52:14.094Z,83.50
2022-10-13T05:54:43.019Z,83.60
2022-10-13T05:57:15.955Z,83.80
2022-10-13T05:59:45.086Z,83.70
2022-10-13T06:02:15.808Z,83.90
2022-10-13T06:04:46.179Z,84.00
2022-10-13T06:07:14.362Z,84.10
2022-10-13T06:09:42.730Z,84.20
2022-10-13T06:12:10.882Z,84.20
2022-10-13T06:14:40.129Z,84.10
2022-10-13T06:17:10.996Z,84.10
2022-10-13T06:19:38.862Z,84.20
2022-10-13T06:22:08.510Z,84.20
2022-10-13T06:24:36.401Z,84.30
2022-10-13T06:27:07.137Z,84.30
2022-10-13T06:29:35.133Z,84.30
2022-10-13T06:32:04.470Z,84.40
2022-10-13T06:34:32.336Z,84.50
2022-10-13T06:37:00.183Z,84.60
2022-10-13T06:39:28.159Z,84.70
2022-10-13T06:41:56.055Z,84.40
2022-10-13T06:44:31.601Z,84.30
2022-10-13T06:47:04.083Z,84.40
2022-10-13T06:49:32.072Z,84.50
2022-10-13T06:52:00.004Z,84.30
2022-10-13T06:54:27.874Z,84.10
2022-10-13T06:56:55.674Z,83.80
2022-10-13T06:59:23.670Z,83.60
2022-10-13T07:01:52.187Z,83.40
2022-10-13T07:04:25.858Z,83.20
2022-10-13T07:06:55.999Z,83.30
2022-10-13T07:09:23.973Z,83.30
2022-10-13T07:11:52.776Z,83.00
2022-10-13T07:14:20.900Z,82.90
2022-10-13T07:16:48.839Z,82.90
2022-10-13T07:19:16.705Z,83.00
2022-10-13T07:21:45.855Z,82.90
2022-10-13T07:24:13.778Z,82.80
2022-10-13T07:26:41.732Z,82.50
2022-10-13T07:29:09.956Z,82.70
2022-10-13T07:31:37.983Z,82.70
2022-10-13T07:34:06.713Z,82.80
2022-10-13T07:36:35.443Z,82.00
2022-10-13T07:39:05.222Z,81.40
2022-10-13T07:41:33.594Z,80.80
2022-10-13T07:44:01.486Z,80.60
2022-10-13T07:46:29.899Z,80.80
2022-10-13T07:48:57.969Z,80.80
2022-10-13T07:51:25.979Z,80.50
2022-10-13T07:53:53.909Z,80.30
2022-10-13T07:56:23.162Z,80.20
2022-10-13T07:58:51.042Z,80.00
2022-10-13T08:01:19.044Z,80.40
2022-10-13T08:03:50.076Z,80.40
2022-10-13T08:06:19.583Z,80.30
2022-10-13T08:08:48.483Z,80.00
2022-10-13T08:11:18.381Z,80.40
2022-10-13T08:13:51.360Z,80.40
2022-10-13T08:16:22.254Z,79.90
2022-10-13T08:18:50.464Z,79.50
2022-10-13T08:24:07.555Z,79.80
2022-10-13T08:26:35.380Z,79.50
2022-10-13T08:31:53.661Z,79.70
2022-10-13T08:34:22.178Z,79.70
2022-10-13T08:36:52.915Z,79.70
2022-10-13T08:39:21.039Z,79.40
2022-10-13T08:41:49.194Z,79.80
2022-10-13T08:47:13.271Z,78.50
2022-10-13T08:49:41.539Z,78.00
2022-10-13T08:52:12.647Z,78.30
2022-10-13T08:54:40.532Z,77.50
2022-10-13T08:57:09.795Z,76.50
2022-10-13T08:59:39.274Z,76.40
2022-10-13T09:02:11.881Z,77.00
2022-10-13T09:04:41.892Z,76.40
2022-10-13T09:07:13.159Z,75.90
2022-10-13T09:09:41.262Z,76.60
2022-10-13T09:12:11.413Z,76.20
2022-10-13T09:14:41.227Z,76.80
2022-10-13T09:17:16.380Z,76.80
2022-10-13T09:19:44.918Z,76.30
2022-10-13T09:22:15.509Z,76.30
2022-10-13T09:24:43.452Z,75.80
2022-10-13T09:27:13.424Z,75.80
2022-10-13T09:29:43.389Z,76.50
2022-10-13T09:32:18.198Z,76.60
2022-10-13T09:34:46.708Z,77.20
2022-10-13T09:37:19.142Z,77.20
2022-10-13T09:39:47.350Z,77.80
2022-10-13T09:42:21.176Z,77.80
2022-10-13T09:44:56.960Z,77.80
2022-10-13T09:47:26.717Z,78.10
2022-10-13T09:50:06.499Z,78.40
2022-10-13T09:52:35.753Z,78.50
2022-10-13T09:55:04.397Z,78.10
2022-10-13T09:57:35.582Z,77.90
2022-10-13T10:00:12.147Z,77.90
2022-10-13T10:02:43.019Z,77.90
2022-10-13T10:05:16.775Z,77.90
2022-10-13T10:07:47.140Z,77.40
2022-10-13T10:10:20.387Z,77.20
2022-10-13T10:12:48.388Z,77.30
2022-10-13T10:15:21.947Z,77.30
2022-10-13T10:17:52.989Z,77.50
2022-10-13T10:20:29.213Z,78.40
2022-10-13T10:23:00.112Z,78.70
2022-10-13T10:25:33.230Z,79.30
2022-10-13T10:28:11.363Z,79.70
2022-10-13T10:30:44.253Z,79.90
2022-10-13T10:33:13.125Z,80.20
2022-10-13T10:35:45.248Z,80.50
2022-10-13T10:38:21.411Z,80.90
2022-10-13T10:40:51.144Z,81.30
2022-10-13T10:43:40.704Z,81.70
2022-10-13T10:46:17.316Z,82.20
2022-10-13T10:48:46.144Z,82.30
2022-10-13T10:51:15.754Z,82.60
2022-10-13T10:53:50.974Z,82.90
2022-10-13T10:56:21.617Z,83.20
2022-10-13T10:58:53.292Z,83.40
2022-10-13T11:01:32.508Z,83.70
2022-10-13T11:04:12.197Z,83.60
2022-10-13T11:06:40.232Z,83.50
2022-10-13T11:09:08.460Z,82.60
2022-10-13T11:11:38.218Z,82.50
2022-10-13T11:14:24.511Z,81.80
2022-10-13T11:17:19.797Z,81.50
2022-10-13T11:19:49.789Z,80.00
2022-10-13T11:22:19.214Z,79.70
2022-10-13T11:24:49.457Z,79.60
2022-10-13T11:27:24.421Z,78.90
2022-10-13T11:29:54.979Z,78.60
2022-10-13T11:32:55.052Z,78.30
2022-10-13T11:35:29.668Z,78.10
2022-10-13T11:38:07.960Z,78.00
2022-10-13T11:40:40.721Z,78.20
2022-10-13T11:43:22.203Z,78.10
2022-10-13T11:46:14.242Z,77.70
2022-10-13T11:49:00.586Z,77.70
2022-10-13T11:51:35.560Z,76.50
2022-10-13T11:54:10.274Z,76.90
2022-10-13T11:56:48.530Z,77.70
2022-10-13T11:59:27.245Z,77.10
2022-10-13T12:01:56.160Z,76.20
2022-10-13T12:04:24.998Z,76.30
2022-10-13T12:07:01.848Z,76.30
2022-10-13T12:09:31.398Z,76.60
2022-10-13T12:12:01.127Z,76.70
2022-10-13T12:14:32.249Z,76.60
2022-10-13T12:17:01.622Z,75.90
2022-10-13T12:19:30.681Z,74.20
2022-10-13T12:22:01.250Z,73.30
2022-10-13T12:24:30.363Z,72.20
2022-10-13T12:26:58.741Z,72.70
2022-10-13T12:29:27.958Z,72.70
2022-10-13T12:31:58.169Z,72.30
2022-10-13T12:34:27.476Z,71.90
2022-10-13T12:36:57.208Z,72.40
2022-10-13T12:39:27.122Z,74.00
2022-10-13T12:41:56.179Z,73.60
2022-10-13T12:44:25.891Z,74.10
2022-10-13T12:46:56.074Z,73.50
2022-10-13T12:49:25.144Z,71.70
2022-10-13T12:51:54.035Z,71.90
2022-10-13T12:54:28.551Z,71.80
2022-10-13T12:56:58.329Z,71.20
2022-10-13T12:59:27.442Z,71.00
2022-10-13T13:01:59.636Z,71.30
2022-10-13T13:04:40.086Z,72.40
2022-10-13T13:07:23.580Z,72.80
2022-10-13T13:10:01.937Z,73.80
2022-10-13T13:12:30.009Z,74.10
2022-10-13T13:14:59.206Z,74.60
2022-10-13T13:20:26.755Z,75.00
2022-10-13T13:22:54.664Z,75.40
2022-10-13T13:25:24.175Z,75.60
2022-10-13T13:27:52.863Z,75.90
2022-10-13T13:30:22.347Z,76.00
2022-10-13T13:32:50.893Z,75.60
2022-10-13T13:35:18.969Z,75.40
2022-10-13T13:37:49.628Z,74.90
2022-10-13T13:40:18.498Z,75.00
2022-10-13T13:42:48.096Z,74.90
2022-10-13T13:45:17.179Z,75.50
2022-10-13T13:47:45.308Z,75.60
2022-10-13T13:50:16.619Z,75.20
2022-10-13T13:52:48.365Z,75.70
2022-10-13T13:55:16.365Z,76.30
2022-10-13T13:57:44.670Z,76.20
2022-10-13T14:00:15.424Z,75.80
2022-10-13T14:02:46.070Z,75.40
2022-10-13T14:05:14.153Z,74.90
2022-10-13T14:07:46.468Z,75.10
2022-10-13T14:10:14.522Z,75.70
2022-10-13T14:12:42.417Z,75.70
2022-10-13T14:15:11.248Z,76.20
2022-10-13T14:17:40.698Z,76.70
2022-10-13T14:20:09.281Z,77.00
2022-10-13T14:22:39.949Z,77.20
2022-10-13T14:25:08.436Z,77.00
2022-10-13T14:27:37.100Z,76.70
2022-10-13T14:30:06.031Z,76.80
2022-10-13T14:32:34.143Z,76.90
2022-10-13T14:35:03.507Z,77.20
2022-10-13T14:37:33.516Z,77.00
2022-10-13T14:40:01.900Z,77.10
2022-10-13T14:42:31.757Z,76.80
2022-10-13T14:44:59.643Z,76.30
2022-10-13T14:47:27.849Z,76.40
2022-10-13T14:49:55.869Z,75.80
2022-10-13T14:52:25.100Z,75.10
2022-10-13T14:54:53.028Z,75.10
2022-10-13T14:57:21.331Z,74.90
2022-10-13T14:59:49.385Z,74.80
2022-10-13T15:02:17.400Z,74.70
2022-10-13T15:04:54.531Z,75.00
2022-10-13T15:07:22.925Z,74.90
2022-10-13T15:10:04.311Z,74.90
2022-10-13T15:12:33.617Z,75.10
2022-10-13T15:15:01.571Z,75.50
2022-10-13T15:17:30.854Z,75.80
2022-10-13T15:19:59.220Z,76.00
2022-10-13T15:22:27.155Z,75.70
2022-10-13T15:24:56.490Z,76.00
2022-10-13T15:27:24.549Z,76.20
2022-10-13T15:29:52.605Z,76.50
2022-10-13T15:32:21.151Z,76.60
2022-10-13T15:34:55.885Z,76.60
2022-10-13T15:37:23.908Z,76.40
2022-10-13T15:39:56.857Z,76.60
2022-10-13T15:42:27.116Z,76.70
2022-10-13T15:45:09.335Z,76.90
2022-10-13T15:47:38.142Z,77.30
2022-10-13T15:50:06.532Z,77.40
2022-10-13T15:52:38.114Z,77.50
2022-10-13T15:55:06.462Z,77.60
2022-10-13T15:57:36.010Z,77.80
2022-10-13T16:00:04.120Z,78.00
2022-10-13T16:02:40.319Z,78.30
2022-10-13T16:05:09.338Z,78.70
2022-10-13T16:07:37.230Z,79.20
2022-10-13T16:10:05.349Z,79.60
2022-10-13T16:12:33.178Z,80.10
2022-10-13T16:15:02.532Z,80.50
2022-10-13T16:17:30.383Z,80.90
2022-10-13T16:19:58.218Z,81.30
2022-10-13T16:22:26.566Z,81.70
2022-10-13T16:24:54.788Z,82.00
2022-10-13T16:27:24.010Z,82.10
2022-10-13T16:29:52.050Z,82.20
2022-10-13T16:32:28.641Z,82.20
2022-10-13T16:34:57.322Z,82.30
2022-10-13T16:37:25.414Z,82.40
2022-10-13T16:39:53.326Z,82.40
2022-10-13T16:42:21.302Z,82.50
2022-10-13T16:44:49.228Z,82.50
2022-10-13T16:47:21.412Z,82.60
2022-10-13T16:49:51.924Z,82.60
2022-10-13T16:52:20.429Z,82.70
2022-10-13T16:54:49.411Z,82.60
2022-10-13T16:57:17.925Z,82.90
2022-10-13T16:59:47.626Z,83.00
2022-10-13T17:02:15.894Z,83.00
2022-10-13T17:04:43.950Z,83.00
2022-10-13T17:07:13.377Z,83.10
2022-10-13T17:09:41.702Z,83.20
2022-10-13T17:12:09.716Z,83.30
2022-10-13T17:14:37.837Z,83.30
2022-10-13T17:17:05.871Z,83.30
2022-10-13T17:19:33.970Z,83.20
2022-10-13T17:22:01.928Z,83.10
2022-10-13T17:24:31.319Z,83.20
2022-10-13T17:27:05.262Z,83.20
2022-10-13T17:29:34.737Z,83.10
2022-10-13T17:32:02.657Z,83.10
2022-10-13T17:34:30.581Z,83.10
2022-10-13T17:37:00.432Z,83.10
2022-10-13T17:39:28.384Z,83.30
2022-10-13T17:41:57.600Z,83.40
2022-10-13T17:44:25.512Z,83.50
2022-10-13T17:46:53.372Z,83.50
2022-10-13T17:49:21.121Z,83.50
2022-10-13T17:51:51.251Z,83.50
2022-10-13T17:54:19.491Z,83.50
2022-10-13T17:56:47.897Z,83.40
2022-10-13T17:59:17.657Z,83.40
2022-10-13T18:01:45.787Z,83.30
2022-10-13T18:04:14.717Z,83.30
2022-10-13T18:06:47.848Z,83.10
2022-10-13T18:09:16.700Z,83.10
2022-10-13T18:11:49.855Z,83.20
2022-10-13T18:14:20.505Z,83.20
2022-10-13T18:16:49.633Z,83.30
2022-10-13T18:19:17.855Z,83.40
2022-10-13T18:21:45.995Z,83.40
2022-10-13T18:24:13.845Z,83.50
2022-10-13T18:26:42.034Z,83.60
2022-10-13T18:29:10.226Z,83.70
2022-10-13T18:31:40.808Z,83.70
2022-10-13T18:34:10.374Z,83.80
2022-10-13T18:36:40.019Z,83.80
2022-10-13T18:39:11.354Z,84.00
2022-10-13T18:41:41.676Z,84.10
2022-10-13T18:44:10.199Z,84.10
2022-10-13T18:46:40.324Z,84.00
2022-10-13T18:49:09.317Z,84.00
2022-10-13T18:51:40.163Z,84.00
2022-10-13T18:54:08.597Z,84.00
2022-10-13T18:56:37.476Z,84.10
2022-10-13T18:59:06.866Z,84.20
2022-10-13T19:01:35.994Z,84.10
2022-10-13T19:04:05.837Z,84.20
2022-10-13T19:06:34.006Z,84.20
2022-10-13T19:09:03.531Z,84.30
2022-10-13T19:11:32.579Z,84.20
2022-10-13T19:14:00.898Z,84.10
2022-10-13T19:16:30.573Z,84.10
2022-10-13T19:18:58.550Z,84.20
2022-10-13T19:21:28.010Z,84.20
2022-10-13T19:23:56.153Z,83.50
2022-10-13T19:26:25.317Z,83.60
2022-10-13T19:29:01.256Z,83.40
2022-10-13T19:31:30.218Z,83.10
2022-10-13T19:34:00.542Z,83.00
2022-10-13T19:36:32.075Z,82.90
2022-10-13T19:39:01.684Z,82.90
2022-10-13T19:41:38.589Z,82.90
2022-10-13T19:44:07.285Z,83.10
2022-10-13T19:46:39.594Z,83.10
2022-10-13T19:49:07.810Z,83.00
2022-10-13T19:51:38.019Z,83.00
2022-10-13T19:54:10.730Z,83.00
2022-10-13T19:56:39.984Z,83.10
2022-10-13T19:59:09.405Z,83.20
2022-10-13T20:01:39.988Z,83.30
2022-10-13T20:04:14.288Z,83.30
2022-10-13T20:06:47.280Z,83.30
2022-10-13T20:09:15.582Z,83.30
2022-10-13T20:11:45.047Z,83.30
2022-10-13T20:14:13.162Z,83.20
2022-10-13T20:16:41.565Z,83.20
2022-10-13T20:19:11.353Z,83.10
2022-10-13T20:21:40.210Z,83.10
2022-10-13T20:24:13.706Z,83.10
2022-10-13T20:26:41.802Z,83.20
2022-10-13T20:29:10.008Z,83.20
2022-10-13T20:31:38.570Z,83.20
2022-10-13T20:34:06.757Z,83.20
2022-10-13T20:36:38.608Z,83.20
2022-10-13T20:39:07.670Z,83.20
2022-10-13T20:41:37.529Z,83.20
2022-10-13T20:44:05.442Z,83.20
2022-10-13T20:46:34.869Z,83.20
2022-10-13T20:49:10.828Z,83.20
2022-10-13T20:51:39.931Z,83.20
2022-10-13T20:54:07.947Z,83.10
2022-10-13T20:56:37.389Z,83.10
2022-10-13T20:59:06.318Z,83.10
2022-10-13T21:01:40.680Z,83.10
2022-10-13T21:04:08.583Z,83.10
2022-10-13T21:06:37.050Z,83.20
2022-10-13T21:09:05.375Z,83.20
2022-10-13T21:11:33.855Z,83.30
2022-10-13T21:14:07.979Z,83.40
2022-10-13T21:16:38.962Z,83.40
2022-10-13T21:19:10.491Z,83.50
2022-10-13T21:21:39.152Z,83.60
2022-10-13T21:24:08.475Z,83.80
2022-10-13T21:26:39.820Z,83.90
2022-10-13T21:29:17.004Z,84.00
2022-10-13T21:31:46.206Z,84.10
2022-10-13T21:34:15.171Z,84.20
2022-10-13T21:36:45.734Z,84.20
2022-10-13T21:39:14.677Z,84.20
2022-10-13T21:41:42.630Z,84.30
2022-10-13T21:44:18.290Z,84.30
2022-10-13T21:46:46.310Z,84.40
2022-10-13T21:49:14.370Z,84.40
2022-10-13T21:51:42.322Z,84.50
2022-10-13T21:54:12.075Z,84.40
2022-10-13T21:56:44.613Z,84.50
2022-10-13T21:59:13.450Z,84.50
2022-10-13T22:01:43.761Z,84.40
2022-10-13T22:04:14.220Z,84.40
2022-10-13T22:06:42.443Z,84.40
2022-10-13T22:09:10.913Z,84.40
2022-10-13T22:11:39.325Z,84.30
2022-10-13T22:14:17.595Z,84.10
2022-10-13T22:16:48.644Z,84.10
2022-10-13T22:19:17.967Z,84.00
2022-10-13T22:21:47.204Z,83.90
2022-10-13T22:24:17.584Z,83.90
2022-10-13T22:26:46.250Z,83.90
2022-10-13T22:29:16.998Z,83.90
2022-10-13T22:31:45.203Z,83.90
2022-10-13T22:34:15.015Z,83.80
2022-10-13T22:36:45.382Z,83.80
2022-10-13T22:39:15.912Z,83.90
2022-10-13T22:41:43.947Z,84.00
2022-10-13T22:44:16.000Z,84.00
2022-10-13T22:46:43.935Z,83.90
2022-10-13T22:49:16.003Z,83.80
2022-10-13T22:51:43.850Z,83.60
2022-10-13T22:54:11.796Z,83.50
2022-10-13T22:56:46.315Z,83.50
2022-10-13T22:59:14.252Z,83.40
2022-10-13T23:01:42.876Z,83.40
2022-10-13T23:04:11.357Z,83.40
2022-10-13T23:06:42.014Z,83.40
2022-10-13T23:09:15.386Z,83.50
2022-10-13T23:11:57.547Z,83.50
2022-10-13T23:14:28.717Z,83.50
2022-10-13T23:16:56.697Z,83.50
2022-10-13T23:19:24.600Z,83.70
2022-10-13T23:21:55.830Z,83.70
2022-10-13T23:24:25.323Z,83.70
2022-10-13T23:27:00.199Z,83.70
2022-10-13T23:29:30.721Z,83.70
2022-10-13T23:31:59.455Z,83.60
2022-10-13T23:34:28.958Z,83.60
2022-10-13T23:36:59.736Z,83.60
2022-10-13T23:39:29.800Z,83.60
2022-10-13T23:41:57.969Z,83.60
2022-10-13T23:44:26.616Z,83.60
2022-10-13T23:47:01.165Z,83.50
2022-10-13T23:49:29.017Z,83.50
2022-10-13T23:51:58.983Z,83.40
2022-10-13T23:54:26.837Z,83.40
2022-10-13T23:56:55.358Z,83.50
2022-10-13T23:59:23.348Z,83.50
